Terminal Aerodrome Forecast
Issued by NWS Sterling, VA

Current Version | Previous Version | Graphics & Text | Print | Product List | Glossary On
Versions: 1 2 3 4 5 6 7 8 9 10 11 12 13 14 15 16 17 18 19 20 21 22 23 24
000
FTUS41 KLWX 262300
TAFDCA
TAF
KDCA 262336Z 2700/2724 18008KT P6SM SCT090
     FM270200 16006KT P6SM BKN090
     FM270800 22004KT P6SM BKN090
     FM271800 24008KT 5SM SHRA VCTS SCT050CB BKN090=

USA.gov is the U.S. government's official web portal to all federal, state and local government web resources and services.